createdAt,value
2023-05-04T00:00:42.879Z,505.00
2023-05-04T00:01:42.835Z,506.00
2023-05-04T00:02:42.967Z,508.00
2023-05-04T00:03:42.987Z,506.00
2023-05-04T00:04:43.062Z,504.00
2023-05-04T00:05:42.860Z,504.00
2023-05-04T00:06:42.918Z,502.00
2023-05-04T00:07:42.944Z,498.00
2023-05-04T00:08:42.978Z,500.00
2023-05-04T00:09:42.966Z,500.00
2023-05-04T00:10:43.023Z,500.00
2023-05-04T00:11:43.427Z,498.00
2023-05-04T00:12:43.102Z,499.00
2023-05-04T00:13:43.103Z,500.00
2023-05-04T00:14:43.119Z,499.00
2023-05-04T00:15:43.137Z,497.00
2023-05-04T00:16:43.446Z,497.00
2023-05-04T00:17:43.222Z,496.00
2023-05-04T00:18:43.223Z,496.00
2023-05-04T00:19:43.270Z,496.00
2023-05-04T00:20:43.278Z,496.00
2023-05-04T00:21:43.391Z,495.00
2023-05-04T00:22:43.346Z,496.00
2023-05-04T00:23:43.363Z,492.00
2023-05-04T00:24:43.385Z,494.00
2023-05-04T00:25:43.408Z,493.00
2023-05-04T00:26:43.453Z,494.00
2023-05-04T00:27:43.455Z,496.00
2023-05-04T00:28:43.533Z,495.00
2023-05-04T00:29:43.540Z,494.00
2023-05-04T00:30:43.561Z,492.00
2023-05-04T00:31:43.629Z,495.00
2023-05-04T00:32:43.646Z,496.00
2023-05-04T00:33:43.677Z,493.00
2023-05-04T00:34:43.684Z,494.00
2023-05-04T00:35:43.726Z,494.00
2023-05-04T00:36:43.739Z,494.00
2023-05-04T00:37:43.735Z,495.00
2023-05-04T00:38:43.788Z,493.00
2023-05-04T00:39:43.838Z,491.00
2023-05-04T00:40:43.850Z,490.00
2023-05-04T00:41:43.878Z,490.00
2023-05-04T00:42:43.907Z,491.00
2023-05-04T00:43:43.919Z,492.00
2023-05-04T00:44:43.957Z,493.00
2023-05-04T00:45:44.010Z,492.00
2023-05-04T00:46:44.048Z,492.00
2023-05-04T00:47:44.046Z,493.00
2023-05-04T00:48:44.079Z,493.00
2023-05-04T00:49:44.106Z,493.00
2023-05-04T00:50:44.162Z,492.00
2023-05-04T00:51:44.218Z,492.00
2023-05-04T00:52:44.216Z,491.00
2023-05-04T00:53:44.222Z,490.00
2023-05-04T00:54:44.302Z,488.00
2023-05-04T00:55:44.297Z,488.00
2023-05-04T00:56:44.326Z,489.00
2023-05-04T00:57:44.350Z,490.00
2023-05-04T00:58:44.384Z,489.00
2023-05-04T00:59:44.417Z,487.00
2023-05-04T01:00:44.462Z,488.00
2023-05-04T01:01:44.479Z,488.00
2023-05-04T01:02:44.588Z,487.00
2023-05-04T01:03:44.592Z,487.00
2023-05-04T01:04:44.570Z,484.00
2023-05-04T01:05:44.617Z,486.00
2023-05-04T01:06:44.630Z,485.00
2023-05-04T01:07:44.652Z,485.00
2023-05-04T01:08:44.709Z,486.00
2023-05-04T01:09:44.722Z,488.00
2023-05-04T01:10:44.765Z,490.00
2023-05-04T01:11:44.783Z,488.00
2023-05-04T01:12:44.876Z,490.00
2023-05-04T01:13:44.858Z,490.00
2023-05-04T01:14:44.856Z,488.00
2023-05-04T01:15:44.923Z,487.00
2023-05-04T01:16:45.001Z,486.00
2023-05-04T01:17:44.978Z,484.00
2023-05-04T01:18:45.021Z,484.00
2023-05-04T01:19:45.044Z,484.00
2023-05-04T01:20:45.110Z,484.00
2023-05-04T01:21:45.140Z,484.00
2023-05-04T01:22:45.143Z,486.00
2023-05-04T01:23:45.189Z,486.00
2023-05-04T01:24:45.210Z,485.00
2023-05-04T01:25:45.227Z,485.00
2023-05-04T01:26:45.279Z,483.00
2023-05-04T01:27:45.419Z,483.00
2023-05-04T01:28:45.365Z,483.00
2023-05-04T01:29:45.387Z,482.00
2023-05-04T01:30:45.441Z,482.00
2023-05-04T01:31:45.944Z,484.00
2023-05-04T01:32:45.616Z,485.00
2023-05-04T01:33:45.532Z,483.00
2023-05-04T01:34:45.553Z,485.00
2023-05-04T01:35:45.572Z,484.00
2023-05-04T01:36:45.572Z,484.00
2023-05-04T01:37:45.631Z,484.00
2023-05-04T01:38:45.640Z,483.00
2023-05-04T01:39:45.710Z,483.00
2023-05-04T01:40:45.725Z,483.00
2023-05-04T01:41:45.936Z,482.00
2023-05-04T01:42:45.795Z,482.00
2023-05-04T01:43:45.797Z,484.00
2023-05-04T01:44:45.825Z,482.00
2023-05-04T01:45:45.897Z,482.00
2023-05-04T01:46:45.982Z,483.00
2023-05-04T01:47:45.964Z,482.00
2023-05-04T01:48:45.949Z,483.00
2023-05-04T01:49:45.986Z,481.00
2023-05-04T01:50:46.021Z,480.00
2023-05-04T01:51:46.034Z,481.00
2023-05-04T01:52:46.059Z,482.00
2023-05-04T01:53:46.111Z,483.00
2023-05-04T01:54:46.154Z,484.00
2023-05-04T01:55:46.205Z,482.00
2023-05-04T01:56:46.235Z,481.00
2023-05-04T01:57:46.248Z,484.00
2023-05-04T01:58:46.265Z,483.00
2023-05-04T01:59:46.332Z,482.00
2023-05-04T02:00:46.362Z,482.00
2023-05-04T02:01:46.428Z,481.00
2023-05-04T02:02:46.474Z,483.00
2023-05-04T02:03:46.560Z,484.00
2023-05-04T02:04:46.572Z,485.00
2023-05-04T02:05:46.533Z,484.00
2023-05-04T02:06:46.544Z,484.00
2023-05-04T02:07:46.584Z,483.00
2023-05-04T02:08:46.603Z,484.00
2023-05-04T02:09:46.665Z,486.00
2023-05-04T02:10:46.717Z,485.00
2023-05-04T02:11:46.724Z,485.00
2023-05-04T02:12:46.823Z,485.00
2023-05-04T02:13:46.783Z,485.00
2023-05-04T02:14:46.893Z,484.00
2023-05-04T02:15:46.916Z,484.00
2023-05-04T02:16:46.969Z,484.00
2023-05-04T02:17:46.970Z,481.00
2023-05-04T02:18:46.997Z,480.00
2023-05-04T02:19:47.016Z,479.00
2023-05-04T02:20:47.038Z,476.00
2023-05-04T02:21:47.086Z,479.00
2023-05-04T02:22:47.122Z,482.00
2023-05-04T02:23:47.156Z,483.00
2023-05-04T02:24:47.172Z,484.00
2023-05-04T02:25:47.227Z,484.00
2023-05-04T02:26:47.218Z,484.00
2023-05-04T02:27:47.252Z,484.00
2023-05-04T02:28:47.338Z,482.00
2023-05-04T02:29:47.391Z,481.00
2023-05-04T02:30:47.403Z,480.00
2023-05-04T02:31:47.476Z,481.00
2023-05-04T02:32:47.514Z,484.00
2023-05-04T02:33:47.519Z,485.00
2023-05-04T02:34:47.525Z,484.00
2023-05-04T02:35:47.543Z,483.00
2023-05-04T02:36:47.957Z,484.00
2023-05-04T02:37:47.639Z,483.00
2023-05-04T02:38:47.644Z,483.00
2023-05-04T02:39:47.692Z,482.00
2023-05-04T02:40:47.726Z,481.00
2023-05-04T02:41:47.754Z,481.00
2023-05-04T02:42:47.798Z,481.00
2023-05-04T02:43:47.863Z,483.00
2023-05-04T02:44:47.903Z,481.00
2023-05-04T02:45:47.961Z,480.00
2023-05-04T02:46:48.433Z,480.00
2023-05-04T02:47:48.045Z,480.00
2023-05-04T02:48:48.368Z,480.00
2023-05-04T02:49:48.452Z,483.00
2023-05-04T02:50:48.061Z,482.00
2023-05-04T02:51:48.461Z,483.00
2023-05-04T02:52:48.091Z,481.00
2023-05-04T02:53:48.189Z,480.00
2023-05-04T02:54:48.173Z,476.00
2023-05-04T02:55:48.186Z,474.00
2023-05-04T02:56:48.250Z,476.00
2023-05-04T02:57:48.247Z,475.00
2023-05-04T02:58:48.325Z,473.00
2023-05-04T02:59:48.334Z,474.00
2023-05-04T03:00:48.384Z,473.00
2023-05-04T03:01:48.613Z,474.00
2023-05-04T03:02:48.498Z,476.00
2023-05-04T03:03:48.530Z,475.00
2023-05-04T03:04:48.556Z,473.00
2023-05-04T03:05:48.555Z,472.00
2023-05-04T03:06:48.974Z,473.00
2023-05-04T03:07:48.641Z,471.00
2023-05-04T03:08:48.678Z,472.00
2023-05-04T03:09:48.701Z,472.00
2023-05-04T03:10:48.785Z,471.00
2023-05-04T03:11:48.801Z,469.00
2023-05-04T03:12:48.906Z,469.00
2023-05-04T03:13:48.930Z,467.00
2023-05-04T03:14:48.973Z,468.00
2023-05-04T03:15:49.000Z,467.00
2023-05-04T03:16:49.151Z,467.00
2023-05-04T03:17:49.146Z,470.00
2023-05-04T03:18:55.977Z,472.00
2023-05-04T03:19:49.126Z,473.00
2023-05-04T03:20:49.129Z,474.00
2023-05-04T03:21:49.137Z,475.00
2023-05-04T03:22:49.465Z,474.00
2023-05-04T03:23:49.116Z,472.00
2023-05-04T03:24:49.090Z,469.00
2023-05-04T03:25:49.073Z,469.00
2023-05-04T03:26:49.093Z,471.00
2023-05-04T03:27:49.102Z,472.00
2023-05-04T03:28:49.065Z,470.00
2023-05-04T03:29:49.126Z,469.00
2023-05-04T03:30:49.051Z,467.00
2023-05-04T03:31:49.128Z,470.00
2023-05-04T03:32:49.091Z,469.00
2023-05-04T03:33:49.043Z,469.00
2023-05-04T03:34:49.040Z,471.00
2023-05-04T03:35:49.037Z,472.00
2023-05-04T03:36:48.983Z,471.00
2023-05-04T03:37:49.467Z,472.00
2023-05-04T03:38:48.986Z,471.00
2023-05-04T03:39:49.013Z,470.00
2023-05-04T03:40:49.022Z,471.00
2023-05-04T03:41:48.973Z,473.00
2023-05-04T03:42:48.983Z,473.00
2023-05-04T03:43:48.954Z,473.00
2023-05-04T03:44:48.954Z,471.00
2023-05-04T03:45:49.009Z,472.00
2023-05-04T03:46:48.967Z,470.00
2023-05-04T03:47:49.020Z,469.00
2023-05-04T03:48:48.936Z,470.00
2023-05-04T03:49:48.930Z,468.00
2023-05-04T03:50:48.951Z,468.00
2023-05-04T03:51:48.949Z,469.00
2023-05-04T03:52:48.998Z,471.00
2023-05-04T03:53:48.908Z,472.00
2023-05-04T03:54:48.964Z,473.00
2023-05-04T03:55:49.030Z,476.00
2023-05-04T03:56:49.077Z,475.00
2023-05-04T03:57:49.097Z,476.00
2023-05-04T03:58:49.111Z,476.00
2023-05-04T03:59:49.140Z,476.00
2023-05-04T04:00:49.160Z,475.00
2023-05-04T04:01:49.246Z,474.00
2023-05-04T04:02:49.365Z,476.00
2023-05-04T04:03:49.397Z,475.00
2023-05-04T04:04:49.353Z,473.00
2023-05-04T04:05:49.420Z,473.00
2023-05-04T04:06:49.441Z,475.00
2023-05-04T04:07:49.476Z,474.00
2023-05-04T04:08:49.557Z,476.00
2023-05-04T04:09:49.601Z,477.00
2023-05-04T04:10:49.624Z,477.00
2023-05-04T04:11:49.689Z,476.00
2023-05-04T04:12:49.781Z,475.00
2023-05-04T04:13:49.788Z,475.00
2023-05-04T04:14:49.815Z,473.00
2023-05-04T04:15:49.884Z,472.00
2023-05-04T04:16:49.925Z,471.00
2023-05-04T04:17:49.990Z,470.00
2023-05-04T04:18:50.028Z,473.00
2023-05-04T04:19:50.049Z,472.00
2023-05-04T04:20:50.109Z,471.00
2023-05-04T04:21:50.132Z,471.00
2023-05-04T04:22:50.177Z,470.00
2023-05-04T04:23:50.253Z,471.00
2023-05-04T04:24:50.300Z,471.00
2023-05-04T04:25:50.298Z,471.00
2023-05-04T04:26:50.353Z,471.00
2023-05-04T04:27:50.420Z,470.00
2023-05-04T04:28:50.459Z,470.00
2023-05-04T04:29:50.475Z,470.00
2023-05-04T04:30:50.514Z,471.00
2023-05-04T04:31:50.652Z,471.00
2023-05-04T04:32:50.645Z,470.00
2023-05-04T04:33:50.661Z,470.00
2023-05-04T04:34:50.695Z,469.00
2023-05-04T04:35:50.775Z,470.00
2023-05-04T04:36:50.789Z,472.00
2023-05-04T04:37:50.834Z,471.00
2023-05-04T04:38:50.842Z,474.00
2023-05-04T04:39:50.900Z,474.00
2023-05-04T04:40:50.939Z,473.00
2023-05-04T04:41:50.984Z,470.00
2023-05-04T04:42:51.479Z,468.00
2023-05-04T04:43:51.131Z,466.00
2023-05-04T04:44:51.186Z,466.00
2023-05-04T04:45:51.190Z,465.00
2023-05-04T04:46:51.274Z,467.00
2023-05-04T04:47:51.304Z,468.00
2023-05-04T04:48:51.371Z,472.00
2023-05-04T04:49:51.390Z,473.00
2023-05-04T04:50:51.451Z,473.00
2023-05-04T04:51:51.542Z,474.00
2023-05-04T04:52:51.521Z,474.00
2023-05-04T04:53:51.564Z,474.00
2023-05-04T04:54:51.623Z,472.00
2023-05-04T04:55:51.652Z,472.00
2023-05-04T04:56:51.713Z,469.00
2023-05-04T04:57:52.013Z,470.00
2023-05-04T04:58:51.791Z,469.00
2023-05-04T04:59:51.869Z,467.00
2023-05-04T05:00:52.009Z,468.00
2023-05-04T05:01:51.995Z,468.00
2023-05-04T05:02:52.528Z,466.00
2023-05-04T05:03:52.066Z,465.00
2023-05-04T05:04:52.179Z,464.00
2023-05-04T05:05:52.152Z,465.00
2023-05-04T05:06:52.174Z,465.00
2023-05-04T05:07:52.242Z,466.00
2023-05-04T05:08:52.256Z,467.00
2023-05-04T05:09:52.339Z,469.00
2023-05-04T05:10:52.343Z,474.00
2023-05-04T05:11:52.404Z,477.00
2023-05-04T05:12:52.509Z,478.00
2023-05-04T05:13:52.990Z,477.00
2023-05-04T05:14:52.479Z,478.00
2023-05-04T05:15:52.505Z,478.00
2023-05-04T05:16:52.639Z,478.00
2023-05-04T05:17:52.655Z,478.00
2023-05-04T05:18:52.710Z,478.00
2023-05-04T05:19:53.500Z,478.00
2023-05-04T05:20:52.767Z,478.00
2023-05-04T05:21:52.804Z,477.00
2023-05-04T05:22:53.011Z,478.00
2023-05-04T05:23:52.865Z,476.00
2023-05-04T05:24:52.917Z,477.00
2023-05-04T05:25:52.974Z,475.00
2023-05-04T05:26:52.984Z,474.00
2023-05-04T05:27:53.011Z,476.00
2023-05-04T05:28:53.052Z,476.00
2023-05-04T05:29:53.118Z,478.00
2023-05-04T05:30:53.221Z,477.00
2023-05-04T05:31:53.175Z,476.00
2023-05-04T05:32:53.614Z,476.00
2023-05-04T05:33:53.216Z,475.00
2023-05-04T05:34:53.233Z,475.00
2023-05-04T05:35:53.269Z,474.00
2023-05-04T05:36:53.371Z,473.00
2023-05-04T05:37:53.330Z,473.00
2023-05-04T05:38:53.382Z,471.00
2023-05-04T05:39:53.375Z,469.00
2023-05-04T05:40:53.406Z,469.00
2023-05-04T05:41:53.455Z,469.00
2023-05-04T05:42:53.485Z,470.00
2023-05-04T05:43:53.517Z,470.00
2023-05-04T05:44:53.512Z,468.00
2023-05-04T05:45:53.643Z,470.00
2023-05-04T05:46:53.578Z,474.00
2023-05-04T05:47:54.077Z,552.00
2023-05-04T05:48:53.616Z,558.00
2023-05-04T05:49:53.644Z,551.00
2023-05-04T05:50:53.656Z,551.00
2023-05-04T05:51:53.697Z,557.00
2023-05-04T05:52:54.032Z,555.00
2023-05-04T05:53:53.712Z,571.00
2023-05-04T05:54:53.766Z,611.00
2023-05-04T05:55:53.809Z,633.00
2023-05-04T05:56:53.829Z,642.00
2023-05-04T05:57:54.005Z,661.00
2023-05-04T05:58:53.954Z,676.00
2023-05-04T05:59:54.004Z,692.00
2023-05-04T06:00:54.033Z,693.00
2023-05-04T06:01:54.097Z,642.00
2023-05-04T06:02:54.590Z,624.00
2023-05-04T06:03:54.437Z,612.00
2023-05-04T06:04:54.414Z,602.00
2023-05-04T06:05:54.239Z,622.00
2023-05-04T06:06:54.251Z,722.00
2023-05-04T06:07:54.286Z,738.00
2023-05-04T06:08:54.336Z,759.00
2023-05-04T06:09:54.387Z,899.00
2023-05-04T06:10:54.444Z,925.00
2023-05-04T06:11:55.665Z,1012.00
2023-05-04T06:12:55.070Z,1025.00
2023-05-04T06:13:54.587Z,1040.00
2023-05-04T06:14:54.591Z,1065.00
2023-05-04T06:15:54.693Z,1145.00
2023-05-04T06:16:54.662Z,1182.00
2023-05-04T06:17:55.063Z,1203.00
2023-05-04T06:18:54.678Z,1212.00
2023-05-04T06:19:54.715Z,1228.00
2023-05-04T06:20:54.765Z,1265.00
2023-05-04T06:21:54.789Z,1290.00
2023-05-04T06:22:54.738Z,1321.00
2023-05-04T06:23:54.750Z,1342.00
2023-05-04T06:24:58.958Z,1366.00
2023-05-04T06:25:55.781Z,1389.00
2023-05-04T06:26:54.746Z,1410.00
2023-05-04T06:27:55.024Z,1427.00
2023-05-04T06:28:54.785Z,1462.00
2023-05-04T06:29:54.744Z,1497.00
2023-05-04T06:30:54.754Z,1523.00
2023-05-04T06:31:54.769Z,1546.00
2023-05-04T06:32:55.090Z,1581.00
2023-05-04T06:33:54.711Z,1599.00
2023-05-04T06:34:54.706Z,1614.00
2023-05-04T06:35:54.794Z,1671.00
2023-05-04T06:36:54.810Z,1689.00
2023-05-04T06:37:55.133Z,1697.00
2023-05-04T06:38:54.885Z,1709.00
2023-05-04T06:39:54.885Z,1731.00
2023-05-04T06:40:54.923Z,1768.00
2023-05-04T06:41:54.936Z,1791.00
2023-05-04T06:42:55.003Z,1815.00
2023-05-04T06:43:57.466Z,1842.00
2023-05-04T06:44:55.007Z,1875.00
2023-05-04T06:45:54.988Z,1892.00
2023-05-04T06:46:54.986Z,1910.00
2023-05-04T06:47:55.104Z,1928.00
2023-05-04T06:48:54.950Z,1960.00
2023-05-04T06:49:54.949Z,1983.00
2023-05-04T06:50:54.903Z,1909.00
2023-05-04T06:51:54.963Z,1494.00
2023-05-04T06:52:54.906Z,1196.00
2023-05-04T06:53:54.941Z,1009.00
2023-05-04T06:54:54.894Z,1115.00
2023-05-04T06:55:54.872Z,1065.00
2023-05-04T06:56:54.894Z,821.00
2023-05-04T06:57:55.084Z,786.00
2023-05-04T06:58:54.873Z,905.00
2023-05-04T06:59:54.887Z,1002.00
2023-05-04T07:00:54.883Z,1087.00
2023-05-04T07:01:54.860Z,1199.00
2023-05-04T07:02:54.843Z,1242.00
2023-05-04T07:03:54.854Z,1315.00
2023-05-04T07:04:54.807Z,1389.00
2023-05-04T07:05:54.827Z,1432.00
2023-05-04T07:06:54.826Z,1447.00
2023-05-04T07:07:54.999Z,1478.00
2023-05-04T07:08:54.802Z,1503.00
2023-05-04T07:09:54.825Z,1522.00
2023-05-04T07:10:54.795Z,1539.00
2023-05-04T07:11:54.795Z,1557.00
2023-05-04T07:12:55.121Z,1616.00
2023-05-04T07:13:54.771Z,1647.00
2023-05-04T07:14:54.753Z,1658.00
2023-05-04T07:15:54.775Z,1676.00
2023-05-04T07:16:54.772Z,1695.00
2023-05-04T07:17:55.121Z,1739.00
2023-05-04T07:18:54.732Z,1763.00
2023-05-04T07:19:54.739Z,1783.00
2023-05-04T07:21:01.733Z,1803.00
2023-05-04T07:21:55.709Z,1825.00
2023-05-04T07:22:54.690Z,1850.00
2023-05-04T07:23:54.706Z,1876.00
2023-05-04T07:24:54.709Z,1902.00
2023-05-04T07:25:54.689Z,1944.00
2023-05-04T07:26:54.678Z,1967.00
2023-05-04T07:27:54.670Z,1998.00
2023-05-04T07:28:54.668Z,2024.00
2023-05-04T07:29:54.660Z,2040.00
2023-05-04T07:30:54.666Z,2054.00
2023-05-04T07:31:55.642Z,2067.00
2023-05-04T07:32:55.077Z,2093.00
2023-05-04T07:33:54.630Z,2119.00
2023-05-04T07:34:54.602Z,2145.00
2023-05-04T07:35:54.610Z,2168.00
2023-05-04T07:36:54.625Z,2194.00
2023-05-04T07:37:54.831Z,2217.00
2023-05-04T07:38:54.604Z,2240.00
2023-05-04T07:39:55.523Z,2260.00
2023-05-04T07:40:54.619Z,2293.00
2023-05-04T07:41:54.572Z,2324.00
2023-05-04T07:42:55.047Z,2346.00
2023-05-04T07:43:54.566Z,2364.00
2023-05-04T07:44:54.553Z,2381.00
2023-05-04T07:45:54.641Z,2398.00
2023-05-04T07:46:54.650Z,2418.00
2023-05-04T07:47:54.739Z,2447.00
2023-05-04T07:48:54.744Z,2474.00
2023-05-04T07:49:54.760Z,2473.00
2023-05-04T07:50:54.826Z,2081.00
2023-05-04T07:51:54.833Z,2084.00
2023-05-04T07:52:55.061Z,2122.00
2023-05-04T07:53:54.841Z,1847.00
2023-05-04T07:54:54.845Z,1859.00
2023-05-04T07:55:54.894Z,1974.00
2023-05-04T07:56:54.968Z,1757.00
2023-05-04T07:57:55.049Z,1779.00
2023-05-04T07:58:54.942Z,1794.00
2023-05-04T07:59:54.957Z,1801.00
2023-05-04T08:00:54.984Z,962.00
2023-05-04T08:01:55.013Z,820.00
2023-05-04T08:02:55.600Z,773.00
2023-05-04T08:03:55.158Z,709.00
2023-05-04T08:04:55.163Z,697.00
2023-05-04T08:05:55.219Z,667.00
2023-05-04T08:06:55.230Z,674.00
2023-05-04T08:07:55.250Z,695.00
2023-05-04T08:08:55.240Z,830.00
2023-05-04T08:09:55.228Z,853.00
2023-05-04T08:10:59.896Z,874.00
2023-05-04T08:11:56.304Z,938.00
2023-05-04T08:12:55.291Z,965.00
2023-05-04T08:13:55.289Z,982.00
2023-05-04T08:14:55.261Z,1015.00
2023-05-04T08:15:55.269Z,1042.00
2023-05-04T08:16:55.246Z,1082.00
2023-05-04T08:17:55.281Z,1198.00
2023-05-04T08:18:55.546Z,1186.00
2023-05-04T08:19:55.231Z,1192.00
2023-05-04T08:20:55.251Z,1202.00
2023-05-04T08:21:55.231Z,1223.00
2023-05-04T08:22:55.225Z,1245.00
2023-05-04T08:23:55.221Z,1276.00
2023-05-04T08:24:55.246Z,1308.00
2023-05-04T08:25:55.211Z,1341.00
2023-05-04T08:27:06.585Z,1364.00
2023-05-04T08:27:56.228Z,1418.00
2023-05-04T08:29:02.551Z,1434.00
2023-05-04T08:29:55.282Z,1456.00
2023-05-04T08:30:55.236Z,1482.00
2023-05-04T08:31:55.286Z,1503.00
2023-05-04T08:32:55.246Z,1549.00
2023-05-04T08:33:55.267Z,1583.00
2023-05-04T08:34:55.190Z,1608.00
2023-05-04T08:35:55.208Z,1639.00
2023-05-04T08:36:55.251Z,1669.00
2023-05-04T08:37:55.179Z,1758.00
2023-05-04T08:38:55.187Z,1762.00
2023-05-04T08:39:55.229Z,1782.00
2023-05-04T08:40:55.173Z,1588.00
2023-05-04T08:41:55.181Z,1430.00
2023-05-04T08:42:55.160Z,1088.00
2023-05-04T08:43:55.155Z,816.00
2023-05-04T08:44:55.140Z,963.00
2023-05-04T08:45:55.142Z,771.00
2023-05-04T08:46:55.120Z,751.00
2023-05-04T08:47:55.171Z,758.00
2023-05-04T08:48:55.571Z,844.00
2023-05-04T08:49:55.100Z,942.00
2023-05-04T08:50:55.117Z,949.00
2023-05-04T08:51:55.113Z,935.00
2023-05-04T08:52:55.093Z,840.00
2023-05-04T08:53:55.069Z,835.00
2023-05-04T08:54:55.086Z,764.00
2023-05-04T08:55:55.075Z,729.00
2023-05-04T08:56:55.103Z,724.00
2023-05-04T08:57:55.160Z,744.00
2023-05-04T08:58:55.205Z,826.00
2023-05-04T08:59:55.266Z,854.00
2023-05-04T09:00:55.400Z,870.00
2023-05-04T09:01:55.418Z,889.00
2023-05-04T09:02:55.471Z,875.00
2023-05-04T09:03:55.519Z,726.00
2023-05-04T09:04:55.416Z,712.00
2023-05-04T09:05:55.432Z,704.00
2023-05-04T09:06:55.528Z,709.00
2023-05-04T09:07:55.483Z,719.00
2023-05-04T09:08:55.606Z,743.00
2023-05-04T09:09:55.589Z,774.00
2023-05-04T09:10:55.578Z,817.00
2023-05-04T09:11:55.599Z,843.00
2023-05-04T09:12:55.685Z,846.00
2023-05-04T09:13:55.673Z,856.00
2023-05-04T09:14:55.676Z,867.00
2023-05-04T09:15:55.696Z,885.00
2023-05-04T09:16:55.738Z,925.00
2023-05-04T09:17:57.714Z,949.00
2023-05-04T09:18:55.727Z,1003.00
2023-05-04T09:19:55.764Z,1040.00
2023-05-04T09:20:55.762Z,1066.00
2023-05-04T09:21:55.800Z,1100.00
2023-05-04T09:22:55.774Z,1129.00
2023-05-04T09:23:55.811Z,1157.00
2023-05-04T09:24:55.827Z,1188.00
2023-05-04T09:25:55.858Z,1234.00
2023-05-04T09:26:55.916Z,1250.00
2023-05-04T09:27:55.930Z,1274.00
2023-05-04T09:28:56.021Z,1300.00
2023-05-04T09:29:56.059Z,1343.00
2023-05-04T09:30:56.098Z,1383.00
2023-05-04T09:31:56.150Z,1397.00
2023-05-04T09:32:56.234Z,1428.00
2023-05-04T09:33:56.281Z,1460.00
2023-05-04T09:34:56.313Z,1485.00
2023-05-04T09:35:56.354Z,1506.00
2023-05-04T09:36:56.411Z,1526.00
2023-05-04T09:37:56.457Z,1551.00
2023-05-04T09:38:56.497Z,1602.00
2023-05-04T09:39:56.527Z,1634.00
2023-05-04T09:40:56.578Z,1661.00
2023-05-04T09:41:56.618Z,1677.00
2023-05-04T09:42:56.653Z,1694.00
2023-05-04T09:43:56.680Z,1719.00
2023-05-04T09:44:56.706Z,1754.00
2023-05-04T09:45:56.791Z,1761.00
2023-05-04T09:46:56.802Z,1820.00
2023-05-04T09:47:56.877Z,1829.00
2023-05-04T09:48:57.065Z,1832.00
2023-05-04T09:49:57.001Z,1832.00
2023-05-04T09:50:57.020Z,1829.00
2023-05-04T09:51:57.095Z,1821.00
2023-05-04T09:52:57.131Z,1810.00
2023-05-04T09:53:57.185Z,1800.00
2023-05-04T09:54:57.222Z,1788.00
2023-05-04T09:55:57.251Z,1781.00
2023-05-04T09:56:57.441Z,1772.00
2023-05-04T09:57:57.390Z,1763.00
2023-05-04T09:58:57.440Z,1756.00
2023-05-04T09:59:57.472Z,1751.00
2023-05-04T10:00:57.527Z,1746.00
2023-05-04T10:02:00.402Z,1741.00
2023-05-04T10:02:58.564Z,1737.00
2023-05-04T10:03:57.563Z,1734.00
2023-05-04T10:04:57.542Z,1732.00
2023-05-04T10:05:57.582Z,1729.00
2023-05-04T10:06:57.526Z,1726.00
2023-05-04T10:07:57.531Z,1721.00
2023-05-04T10:08:57.491Z,1716.00
2023-05-04T10:09:57.528Z,1716.00
2023-05-04T10:10:57.500Z,1716.00
2023-05-04T10:11:58.805Z,1712.00
2023-05-04T10:12:57.579Z,1708.00
2023-05-04T10:13:57.587Z,1704.00
2023-05-04T10:14:57.571Z,1698.00
2023-05-04T10:15:57.621Z,1696.00
2023-05-04T10:16:57.595Z,1693.00
2023-05-04T10:17:57.719Z,1689.00
2023-05-04T10:18:57.616Z,1684.00
2023-05-04T10:19:57.633Z,1680.00
2023-05-04T10:20:57.659Z,1678.00
2023-05-04T10:21:57.668Z,1673.00
2023-05-04T10:22:57.652Z,1665.00
2023-05-04T10:23:57.696Z,1661.00
2023-05-04T10:24:57.729Z,1653.00
2023-05-04T10:25:57.673Z,1642.00
2023-05-04T10:26:57.724Z,1634.00
2023-05-04T10:27:57.725Z,1624.00
2023-05-04T10:28:57.762Z,1621.00
2023-05-04T10:29:57.789Z,1618.00
2023-05-04T10:30:57.763Z,1611.00
2023-05-04T10:31:57.898Z,1606.00
2023-05-04T10:32:57.863Z,1607.00
2023-05-04T10:33:57.837Z,1605.00
2023-05-04T10:34:57.878Z,1600.00
2023-05-04T10:35:57.845Z,1602.00
2023-05-04T10:36:57.892Z,1601.00
2023-05-04T10:37:57.913Z,1596.00
2023-05-04T10:38:58.101Z,1593.00
2023-05-04T10:39:57.952Z,1589.00
2023-05-04T10:40:57.945Z,1582.00
2023-05-04T10:41:58.045Z,1574.00
2023-05-04T10:42:58.008Z,1566.00
2023-05-04T10:43:58.038Z,1561.00
2023-05-04T10:44:58.077Z,1557.00
2023-05-04T10:45:58.080Z,1553.00
2023-05-04T10:46:59.569Z,1549.00
2023-05-04T10:47:58.207Z,1543.00
2023-05-04T10:48:58.626Z,1536.00
2023-05-04T10:49:58.137Z,1528.00
2023-05-04T10:50:58.157Z,1522.00
2023-05-04T10:51:58.193Z,1517.00
2023-05-04T10:52:59.996Z,1515.00
2023-05-04T10:53:58.249Z,1514.00
2023-05-04T10:54:58.265Z,1512.00
2023-05-04T10:55:58.275Z,1507.00
2023-05-04T10:56:58.277Z,1507.00
2023-05-04T10:57:58.331Z,1506.00
2023-05-04T10:58:58.332Z,1503.00
2023-05-04T10:59:58.383Z,1497.00
2023-05-04T11:00:58.414Z,1489.00
2023-05-04T11:01:58.374Z,1484.00
2023-05-04T11:02:58.480Z,1479.00
2023-05-04T11:03:58.432Z,1474.00
2023-05-04T11:04:58.496Z,1474.00
2023-05-04T11:05:58.444Z,1471.00
2023-05-04T11:06:58.503Z,1468.00
2023-05-04T11:08:00.502Z,1463.00
2023-05-04T11:08:58.548Z,1459.00
2023-05-04T11:09:58.523Z,1454.00
2023-05-04T11:10:58.572Z,1451.00
2023-05-04T11:11:58.582Z,1448.00
2023-05-04T11:12:58.598Z,1441.00
2023-05-04T11:13:59.133Z,1434.00
2023-05-04T11:14:58.662Z,1429.00
2023-05-04T11:15:58.735Z,1424.00
2023-05-04T11:16:58.793Z,1419.00
2023-05-04T11:17:58.844Z,1413.00
2023-05-04T11:18:58.864Z,1402.00
2023-05-04T11:19:58.902Z,1394.00
2023-05-04T11:20:58.910Z,1391.00
2023-05-04T11:21:58.963Z,1387.00
2023-05-04T11:22:59.024Z,1377.00
2023-05-04T11:23:59.096Z,1371.00
2023-05-04T11:24:59.118Z,1367.00
2023-05-04T11:25:59.142Z,1365.00
2023-05-04T11:26:59.213Z,1359.00
2023-05-04T11:27:59.236Z,1353.00
2023-05-04T11:28:59.287Z,1348.00
2023-05-04T11:29:59.327Z,1345.00
2023-05-04T11:30:59.401Z,1342.00
2023-05-04T11:31:59.458Z,1334.00
2023-05-04T11:32:59.481Z,1334.00
2023-05-04T11:33:59.520Z,1328.00
2023-05-04T11:34:59.588Z,1323.00
2023-05-04T11:35:59.570Z,1317.00
2023-05-04T11:36:59.660Z,1310.00
2023-05-04T11:37:59.702Z,1306.00
2023-05-04T11:38:59.760Z,1304.00
2023-05-04T11:39:59.757Z,1309.00
2023-05-04T11:41:00.181Z,1315.00
2023-05-04T11:42:00.234Z,1317.00
2023-05-04T11:42:59.848Z,1325.00
2023-05-04T11:43:59.883Z,1325.00
2023-05-04T11:44:59.909Z,1324.00
2023-05-04T11:45:59.927Z,1322.00
2023-05-04T11:46:59.968Z,1317.00
2023-05-04T11:48:00.055Z,1312.00
2023-05-04T11:49:00.032Z,1307.00
2023-05-04T11:50:00.114Z,1301.00
2023-05-04T11:51:00.155Z,1295.00
2023-05-04T11:52:00.184Z,1290.00
2023-05-04T11:53:00.233Z,1288.00
2023-05-04T11:54:00.286Z,1286.00
2023-05-04T11:55:00.297Z,1283.00
2023-05-04T11:56:00.361Z,1283.00
2023-05-04T11:57:00.384Z,1283.00
2023-05-04T11:58:00.439Z,1279.00
2023-05-04T11:59:00.510Z,1277.00
2023-05-04T12:00:00.570Z,1275.00
2023-05-04T12:01:00.602Z,1273.00
2023-05-04T12:02:00.626Z,1268.00
2023-05-04T12:03:00.797Z,1265.00
2023-05-04T12:04:00.885Z,1265.00
2023-05-04T12:05:00.775Z,1261.00
2023-05-04T12:06:00.870Z,1260.00
2023-05-04T12:07:01.912Z,1256.00
2023-05-04T12:08:00.944Z,1255.00
2023-05-04T12:09:01.006Z,1252.00
2023-05-04T12:10:01.032Z,1252.00
2023-05-04T12:11:01.076Z,1251.00
2023-05-04T12:12:01.125Z,1247.00
2023-05-04T12:13:01.215Z,1247.00
2023-05-04T12:14:01.201Z,1242.00
2023-05-04T12:15:01.236Z,1235.00
2023-05-04T12:16:01.297Z,1232.00
2023-05-04T12:17:01.315Z,1232.00
2023-05-04T12:18:03.035Z,1231.00
2023-05-04T12:19:01.428Z,1231.00